Schneifelwetter: Wetterstation Hallschlag, 537 m . NN
Wetterdaten: Mittwoch, 03.02.2010
Datum Zeit Temp. A. Feuchte A. Luftdruck Regen Wind Richtung Richtung Sonnenschein Helligkeit T Regen Taupunkt Windchill
03.02.2010 00:09 0,5 C 99 % 999 hPa 0,3 l/m 42,1 km/h (6 Bft) W-SW22.5 255 0 min 0 lux 15,00 min 0,4 C -15,6 C
03.02.2010 00:24 0,7 C 99 % 999 hPa 0,3 l/m 37,9 km/h (5 Bft) W22.5 260 0 min 0 lux 15,00 min 0,6 C -14,5 C
03.02.2010 00:39 0,8 C 99 % 999 hPa 0,3 l/m 40,8 km/h (6 Bft) W-SW22.5 255 0 min 0 lux 15,00 min 0,7 C -14,9 C
03.02.2010 00:54 0,9 C 99 % 999 hPa 0,3 l/m 38,4 km/h (5 Bft) W-SW22.5 255 0 min 0 lux 15,00 min 0,8 C -14,3 C
03.02.2010 01:09 1,1 C 99 % 1000 hPa 0,3 l/m 41,5 km/h (6 Bft) W-SW22.5 255 0 min 0 lux 15,00 min 1,0 C -14,6 C
03.02.2010 01:24 1,1 C 99 % 1000 hPa 0,3 l/m 37,2 km/h (5 Bft) W45 260 0 min 0 lux 15,00 min 1,0 C -13,7 C
03.02.2010 01:39 1,2 C 99 % 1000 hPa 0,3 l/m 31,8 km/h (5 Bft) W45 260 0 min 0 lux 15,00 min 1,1 C -12,2 C
03.02.2010 01:54 1,2 C 99 % 1000 hPa 0,3 l/m 27,5 km/h (4 Bft) W22.5 260 0 min 0 lux 15,00 min 1,1 C -10,9 C
03.02.2010 02:09 1,2 C 99 % 1000 hPa 0,3 l/m 28,0 km/h (4 Bft) W-SW45 255 0 min 0 lux 15,00 min 1,1 C -11,1 C
03.02.2010 02:24 1,2 C 99 % 1000 hPa 0,3 l/m 29,8 km/h (5 Bft) W-SW45 255 0 min 0 lux 15,00 min 1,1 C -11,7 C
03.02.2010 02:38 1,2 C 99 % 1001 hPa 0,6 l/m 33,1 km/h (5 Bft) W45 260 0 min 0 lux 14,00 min 1,1 C -12,6 C
03.02.2010 02:53 0,8 C 99 % 1001 hPa 0,3 l/m 12,8 km/h (3 Bft) W45 280 0 min 0 lux 15,00 min 0,7 C -4,6 C
03.02.2010 03:08 0,3 C 99 % 1001 hPa 0,0 l/m 13,8 km/h (3 Bft) W22.5 260 0 min 0 lux 0,00 min 0,2 C -5,9 C
03.02.2010 03:23 0,1 C 99 % 1001 hPa 0,0 l/m 11,5 km/h (2 Bft) W-SW 255 0 min 0 lux 0,00 min -0,0 C -4,5 C
03.02.2010 03:39 0,0 C 99 % 1001 hPa 0,0 l/m 10,8 km/h (2 Bft) W45 280 0 min 0 lux 0,00 min -0,1 C -4,1 C
03.02.2010 03:54 -0,2 C 99 % 1001 hPa 0,0 l/m 11,6 km/h (2 Bft) W22.5 260 0 min 0 lux 0,00 min -0,3 C -4,9 C
03.02.2010 04:09 -0,2 C 99 % 1002 hPa 0,0 l/m 0,7 km/h (0 Bft) W-SW 250 0 min 0 lux 0,00 min -0,3 C -0,2 C
03.02.2010 04:24 -0,3 C 99 % 1002 hPa 0,0 l/m 0,8 km/h (0 Bft) W-SW 250 0 min 0 lux 0,00 min -0,4 C -0,3 C
03.02.2010 04:39 -0,4 C 99 % 1002 hPa 0,0 l/m 0,0 km/h (0 Bft) W-SW 250 0 min 0 lux 0,00 min -0,5 C -0,4 C
03.02.2010 04:54 -0,6 C 99 % 1002 hPa 0,0 l/m 13,9 km/h (3 Bft) W22.5 260 0 min 0 lux 0,00 min -0,7 C -7,0 C
03.02.2010 05:09 -0,6 C 99 % 1002 hPa 0,0 l/m 9,0 km/h (2 Bft) W22.5 280 0 min 0 lux 0,00 min -0,7 C -3,2 C
03.02.2010 05:24 -0,7 C 99 % 1003 hPa 0,0 l/m 7,0 km/h (2 Bft) W22.5 265 0 min 0 lux 0,00 min -0,8 C -1,3 C
03.02.2010 05:39 -0,6 C 99 % 1003 hPa 0,0 l/m 5,7 km/h (1 Bft) W 265 0 min 0 lux 0,00 min -0,7 C -0,6 C
03.02.2010 05:54 -0,7 C 99 % 1003 hPa 0,0 l/m 0,0 km/h (0 Bft) W 265 0 min 0 lux 0,00 min -0,8 C -0,7 C
03.02.2010 06:09 -0,7 C 99 % 1003 hPa 0,0 l/m 0,0 km/h (0 Bft) W 265 0 min 0 lux 0,00 min -0,8 C -0,7 C
03.02.2010 06:24 -0,8 C 99 % 1003 hPa 0,0 l/m 0,0 km/h (0 Bft) W 265 0 min 0 lux 0,00 min -0,9 C -0,8 C
03.02.2010 06:39 -0,8 C 99 % 1003 hPa 0,0 l/m 0,0 km/h (0 Bft) W 265 0 min 0 lux 0,00 min -0,9 C -0,8 C
03.02.2010 06:54 -0,8 C 99 % 1004 hPa 0,0 l/m 0,0 km/h (0 Bft) W 265 0 min 0 lux 0,00 min -0,9 C -0,8 C
03.02.2010 07:09 -0,8 C 99 % 1004 hPa 0,0 l/m 0,0 km/h (0 Bft) W 265 0 min 0 lux 0,00 min -0,9 C -0,8 C
03.02.2010 07:24 -1,0 C 99 % 1004 hPa 0,0 l/m 0,0 km/h (0 Bft) W 265 0 min 0 lux 0,00 min -1,1 C -1,0 C
03.02.2010 07:39 -0,9 C 99 % 1004 hPa 0,0 l/m 0,0 km/h (0 Bft) W 265 0 min 0 lux 0,00 min -1,0 C -0,9 C
03.02.2010 07:54 -1,0 C 99 % 1004 hPa 0,0 l/m 0,0 km/h (0 Bft) W 265 0 min 108 lux 0,00 min -1,1 C -1,0 C
03.02.2010 08:09 -1,0 C 99 % 1005 hPa 0,0 l/m 0,0 km/h (0 Bft) W 265 0 min 298 lux 0,00 min -1,1 C -1,0 C
03.02.2010 08:24 -1,0 C 99 % 1005 hPa 0,0 l/m 0,0 km/h (0 Bft) W 265 0 min 808 lux 0,00 min -1,1 C -1,0 C
03.02.2010 08:39 -0,9 C 99 % 1005 hPa 0,0 l/m 0,0 km/h (0 Bft) W 265 0 min 2,56 klux 0,00 min -1,0 C -0,9 C
03.02.2010 08:54 -0,7 C 99 % 1005 hPa 0,0 l/m 0,0 km/h (0 Bft) W 265 0 min 2,52 klux 0,00 min -0,8 C -0,7 C
03.02.2010 09:09 -0,6 C 99 % 1005 hPa 0,0 l/m 0,0 km/h (0 Bft) W 265 0 min 4,59 klux 0,00 min -0,7 C -0,6 C
03.02.2010 09:24 -0,3 C 99 % 1005 hPa 0,0 l/m 0,0 km/h (0 Bft) W 265 0 min 5,80 klux 0,00 min -0,4 C -0,3 C
03.02.2010 09:39 -0,2 C 99 % 1006 hPa 0,0 l/m 0,0 km/h (0 Bft) W 265 0 min 6,44 klux 0,00 min -0,3 C -0,2 C
03.02.2010 09:54 0,1 C 99 % 1006 hPa 0,0 l/m 0,0 km/h (0 Bft) W 265 0 min 7,09 klux 0,00 min -0,0 C 0,1 C
03.02.2010 10:15 0,2 C 99 % 1006 hPa 0,0 l/m 0,0 km/h (0 Bft) W 265 0 min 8,25 klux 0,00 min 0,1 C 0,2 C
03.02.2010 10:29 0,3 C 99 % 1006 hPa 0,0 l/m 0,0 km/h (0 Bft) W 265 0 min 9,1 klux 0,00 min 0,2 C 0,3 C
03.02.2010 10:45 0,5 C 99 % 1006 hPa 0,0 l/m 0,0 km/h (0 Bft) W 265 0 min 10,6 klux 0,00 min 0,4 C 0,5 C
03.02.2010 11:00 0,5 C 99 % 1007 hPa 0,0 l/m 0,0 km/h (0 Bft) W 265 0 min 11,0 klux 0,00 min 0,4 C 0,5 C
03.02.2010 11:15 0,5 C 99 % 1007 hPa 0,0 l/m 6,6 km/h (2 Bft) W-SW 240 0 min 11,2 klux 0,00 min 0,4 C 0,3 C
03.02.2010 11:30 0,6 C 99 % 1007 hPa 0,3 l/m 7,5 km/h (2 Bft) W-SW22.5 245 0 min 13,3 klux 15,00 min 0,5 C -0,5 C
03.02.2010 11:45 0,8 C 99 % 1007 hPa 0,0 l/m 8,7 km/h (2 Bft) W-SW 245 0 min 13,9 klux 0,00 min 0,7 C -1,5 C
03.02.2010 12:00 1,0 C 99 % 1007 hPa 0,0 l/m 8,1 km/h (2 Bft) W-SW 250 0 min 15,2 klux 0,00 min 0,9 C -0,7 C
03.02.2010 12:15 1,1 C 99 % 1007 hPa 0,0 l/m 4,4 km/h (1 Bft) W-SW 245 0 min 17,6 klux 0,00 min 1,0 C 1,1 C
03.02.2010 12:30 1,2 C 98 % 1007 hPa 0,0 l/m 0,0 km/h (0 Bft) W-SW 245 0 min 18,8 klux 0,00 min 0,9 C 1,2 C
03.02.2010 12:45 1,2 C 98 % 1007 hPa 0,0 l/m 0,0 km/h (0 Bft) W-SW 245 0 min 19,4 klux 0,00 min 0,9 C 1,2 C
03.02.2010 13:00 1,5 C 97 % 1007 hPa 0,3 l/m 0,0 km/h (0 Bft) W-SW 240 15 min 27,7 klux 15,00 min 1,1 C 1,5 C
03.02.2010 13:15 1,9 C 98 % 1007 hPa 0,0 l/m 0,0 km/h (0 Bft) W-SW 245 15 min 33,7 klux 0,00 min 1,6 C 1,9 C
03.02.2010 13:30 2,1 C 96 % 1007 hPa 0,3 l/m 10,2 km/h (2 Bft) W-SW22.5 245 15 min 38,4 klux 15,00 min 1,5 C -1,3 C
03.02.2010 13:45 1,9 C 96 % 1008 hPa 0,0 l/m 12,0 km/h (2 Bft) W-SW22.5 250 0 min 24,0 klux 0,00 min 1,3 C -2,8 C
03.02.2010 14:00 1,5 C 96 % 1008 hPa 0,0 l/m 10,5 km/h (2 Bft) W-SW22.5 250 0 min 15,0 klux 0,00 min 0,9 C -2,2 C
03.02.2010 14:15 1,5 C 97 % 1008 hPa 0,3 l/m 14,8 km/h (3 Bft) W-SW 250 0 min 20,8 klux 15,00 min 1,1 C -5,0 C
03.02.2010 14:30 1,6 C 96 % 1008 hPa 0,3 l/m 16,3 km/h (3 Bft) W-SW22.5 250 0 min 22,6 klux 15,00 min 1,0 C -5,8 C
03.02.2010 14:45 1,4 C 96 % 1008 hPa 0,0 l/m 20,0 km/h (4 Bft) W-SW45 255 0 min 14,0 klux 0,00 min 0,8 C -7,8 C
03.02.2010 15:00 1,2 C 96 % 1008 hPa 0,3 l/m 17,6 km/h (3 Bft) W22.5 260 0 min 15,5 klux 15,00 min 0,6 C -6,9 C
03.02.2010 15:15 1,2 C 96 % 1008 hPa 0,0 l/m 20,8 km/h (4 Bft) W45 260 0 min 18,4 klux 0,00 min 0,6 C -8,4 C
03.02.2010 15:30 1,1 C 96 % 1008 hPa 0,0 l/m 22,3 km/h (4 Bft) W22.5 260 0 min 16,0 klux 0,00 min 0,5 C -9,2 C
03.02.2010 15:45 1,0 C 95 % 1008 hPa 0,3 l/m 13,6 km/h (3 Bft) W22.5 265 0 min 13,9 klux 15,00 min 0,3 C -4,9 C
03.02.2010 16:00 0,8 C 95 % 1009 hPa 0,0 l/m 10,2 km/h (2 Bft) W 260 0 min 13,5 klux 0,00 min 0,1 C -2,7 C
03.02.2010 16:15 0,5 C 95 % 1009 hPa 0,0 l/m 14,5 km/h (3 Bft) W-SW22.5 255 0 min 6,83 klux 0,00 min -0,2 C -6,1 C
03.02.2010 16:30 0,3 C 95 % 1009 hPa 0,0 l/m 7,8 km/h (2 Bft) W-SW22.5 245 0 min 5,61 klux 0,00 min -0,4 C -1,1 C
03.02.2010 16:45 0,2 C 95 % 1009 hPa 0,0 l/m 9,9 km/h (2 Bft) W-SW 250 0 min 5,92 klux 0,00 min -0,5 C -3,1 C
03.02.2010 17:00 0,2 C 96 % 1009 hPa 0,3 l/m 5,7 km/h (1 Bft) W-SW 250 0 min 5,07 klux 15,00 min -0,4 C 0,2 C
03.02.2010 17:14 0,0 C 96 % 1009 hPa 0,0 l/m 4,6 km/h (1 Bft) W-SW 250 0 min 2,90 klux 0,00 min -0,6 C 0,0 C
03.02.2010 17:30 -0,2 C 97 % 1009 hPa 0,0 l/m 0,2 km/h (0 Bft) W-SW 250 0 min 961 lux 0,00 min -0,6 C -0,2 C
03.02.2010 17:45 -0,4 C 97 % 1009 hPa 0,0 l/m 0,0 km/h (0 Bft) W-SW 250 0 min 280 lux 0,00 min -0,8 C -0,4 C
03.02.2010 18:00 -0,5 C 97 % 1010 hPa 0,0 l/m 0,0 km/h (0 Bft) W-SW 250 0 min 39 lux 0,00 min -0,9 C -0,5 C
03.02.2010 18:15 -0,6 C 97 % 1010 hPa 0,0 l/m 0,0 km/h (0 Bft) W-SW 250 0 min 9 lux 0,00 min -1,0 C -0,6 C
03.02.2010 18:30 -0,6 C 98 % 1010 hPa 0,0 l/m 0,0 km/h (0 Bft) W-SW 250 0 min 0 lux 0,00 min -0,9 C -0,6 C
03.02.2010 18:45 -0,6 C 98 % 1010 hPa 0,0 l/m 0,0 km/h (0 Bft) W-SW 250 0 min 0 lux 0,00 min -0,9 C -0,6 C
03.02.2010 19:00 -0,7 C 98 % 1010 hPa 0,0 l/m 0,0 km/h (0 Bft) W-SW 250 0 min 0 lux 0,00 min -1,0 C -0,7 C
03.02.2010 19:15 -0,7 C 98 % 1010 hPa 0,0 l/m 0,0 km/h (0 Bft) W-SW 250 0 min 0 lux 0,00 min -1,0 C -0,7 C
03.02.2010 19:30 -0,8 C 98 % 1010 hPa 0,0 l/m 0,0 km/h (0 Bft) W-SW 250 0 min 0 lux 0,00 min -1,1 C -0,8 C
03.02.2010 19:45 -0,8 C 98 % 1010 hPa 0,0 l/m 0,0 km/h (0 Bft) W-SW 250 0 min 0 lux 0,00 min -1,1 C -0,8 C
03.02.2010 20:00 -0,7 C 98 % 1010 hPa 0,0 l/m 0,0 km/h (0 Bft) W-SW 250 0 min 0 lux 0,00 min -1,0 C -0,7 C
03.02.2010 20:15 -0,7 C 98 % 1010 hPa 0,0 l/m 0,0 km/h (0 Bft) W-SW 250 0 min 0 lux 0,00 min -1,0 C -0,7 C
03.02.2010 20:30 -0,6 C 98 % 1010 hPa 0,0 l/m 0,0 km/h (0 Bft) W-SW 250 0 min 0 lux 0,00 min -0,9 C -0,6 C
03.02.2010 20:45 -0,6 C 98 % 1010 hPa 0,0 l/m 0,0 km/h (0 Bft) W-SW 250 0 min 0 lux 0,00 min -0,9 C -0,6 C
03.02.2010 21:00 -0,6 C 98 % 1010 hPa 0,0 l/m 0,0 km/h (0 Bft) W-SW 250 0 min 0 lux 0,00 min -0,9 C -0,6 C
03.02.2010 21:15 -0,6 C 99 % 1010 hPa 0,0 l/m 0,0 km/h (0 Bft) W-SW 250 0 min 0 lux 0,00 min -0,7 C -0,6 C
03.02.2010 21:30 -0,4 C 99 % 1010 hPa 0,0 l/m 0,0 km/h (0 Bft) W-SW 250 0 min 0 lux 0,00 min -0,5 C -0,4 C
03.02.2010 21:45 -0,2 C 99 % 1010 hPa 0,0 l/m 10,5 km/h (2 Bft) W-SW 250 0 min 0 lux 0,00 min -0,3 C -4,1 C
03.02.2010 22:00 -0,2 C 99 % 1010 hPa 0,0 l/m 8,9 km/h (2 Bft) W-SW 250 0 min 0 lux 0,00 min -0,3 C -2,7 C
03.02.2010 22:15 -0,2 C 99 % 1010 hPa 0,0 l/m 5,7 km/h (1 Bft) W-SW 250 0 min 0 lux 0,00 min -0,3 C -0,2 C
03.02.2010 22:30 -0,2 C 99 % 1010 hPa 0,0 l/m 4,1 km/h (1 Bft) W-SW 250 0 min 0 lux 0,00 min -0,3 C -0,2 C
03.02.2010 22:45 0,0 C 99 % 1010 hPa 0,6 l/m 0,4 km/h (0 Bft) W-SW 250 0 min 0 lux 15,00 min -0,1 C 0,0 C
03.02.2010 23:00 0,0 C 99 % 1010 hPa 0,6 l/m 0,0 km/h (0 Bft) W-SW 250 0 min 0 lux 15,00 min -0,1 C 0,0 C
03.02.2010 23:15 0,1 C 99 % 1010 hPa 0,6 l/m 6,0 km/h (2 Bft) SW 230 0 min 0 lux 15,00 min -0,0 C 0,1 C
03.02.2010 23:30 0,2 C 99 % 1010 hPa 0,6 l/m 1,2 km/h (1 Bft) SW 230 0 min 0 lux 15,00 min 0,1 C 0,2 C
03.02.2010 23:45 0,2 C 99 % 1011 hPa 0,0 l/m 8,2 km/h (2 Bft) W-SW 250 0 min 0 lux 0,00 min 0,1 C -1,6 C
_ Min-Zeit 07:24 15:45 00:09 - 04:39 - - - - - 07:24 00:09
Minimum _ -1,0 C 95 % 999 hPa - 0,0 km/h (0 Bft) - - - - - -1,1 C -15,6 C
_ Max-Zeit 13:30 00:09 23:45 02:38 00:09 - - 13:00 13:30 00:09 13:15 13:15
Maximum _ 2,1 C 99 % 1011 hPa 0,6 l/m 42,1 km/h
W-SW (6 Bft)
- - 15 min 38,4 klux 15,00 min 1,6 C 1,9 C
Durchschnitt _ 0,1 C 98 % 1006 hPa #8,7 l/m 8,2 km/h (2 Bft) W-SW - #45 min. 5,05 klux #5:59 h -0,1 C -2,9 C